createdAt,value
2023-05-26T00:01:54.058Z,99.90
2023-05-26T00:04:22.643Z,99.90
2023-05-26T00:06:54.493Z,99.90
2023-05-26T00:09:25.307Z,99.90
2023-05-26T00:11:54.040Z,99.90
2023-05-26T00:14:22.536Z,99.90
2023-05-26T00:16:50.966Z,99.90
2023-05-26T00:19:20.830Z,99.90
2023-05-26T00:21:49.384Z,99.90
2023-05-26T00:24:17.844Z,99.90
2023-05-26T00:26:47.842Z,99.90
2023-05-26T00:29:28.570Z,99.90
2023-05-26T00:31:59.049Z,99.90
2023-05-26T00:34:27.513Z,99.90
2023-05-26T00:36:55.998Z,99.90
2023-05-26T00:39:24.519Z,99.90
2023-05-26T00:41:54.613Z,99.90
2023-05-26T00:44:23.481Z,99.90
2023-05-26T00:46:52.013Z,99.90
2023-05-26T00:49:20.659Z,99.90
2023-05-26T00:51:49.526Z,99.90
2023-05-26T00:54:18.364Z,99.90
2023-05-26T00:56:46.895Z,99.90
2023-05-26T00:59:17.022Z,99.90
2023-05-26T01:01:46.134Z,99.90
2023-05-26T01:04:15.078Z,99.90
2023-05-26T01:06:46.087Z,99.90
2023-05-26T01:09:15.306Z,99.90
2023-05-26T01:11:49.078Z,99.90
2023-05-26T01:14:27.776Z,99.90
2023-05-26T01:17:02.772Z,99.90
2023-05-26T01:20:03.166Z,99.90
2023-05-26T01:22:52.356Z,99.90
2023-05-26T01:25:33.285Z,99.90
2023-05-26T01:28:08.234Z,99.90
2023-05-26T01:30:37.280Z,99.90
2023-05-26T01:33:06.056Z,99.90
2023-05-26T01:35:34.605Z,99.90
2023-05-26T01:38:04.097Z,99.90
2023-05-26T01:40:33.167Z,99.90
2023-05-26T01:43:05.641Z,99.90
2023-05-26T01:45:41.176Z,99.90
2023-05-26T01:48:11.621Z,99.90
2023-05-26T01:50:44.334Z,99.90
2023-05-26T01:53:14.619Z,99.90
2023-05-26T01:55:44.694Z,99.90
2023-05-26T01:58:13.799Z,99.90
2023-05-26T02:00:49.600Z,99.90
2023-05-26T02:03:18.785Z,99.90
2023-05-26T02:05:47.840Z,99.90
2023-05-26T02:08:16.589Z,99.90
2023-05-26T02:10:45.028Z,99.90
2023-05-26T02:13:13.491Z,99.90
2023-05-26T02:15:42.167Z,99.90
2023-05-26T02:18:13.301Z,99.90
2023-05-26T02:20:41.937Z,99.90
2023-05-26T02:23:10.606Z,99.90
2023-05-26T02:25:39.094Z,99.90
2023-05-26T02:28:07.628Z,99.90
2023-05-26T02:30:36.151Z,99.90
2023-05-26T02:33:04.824Z,99.90
2023-05-26T02:35:34.737Z,99.90
2023-05-26T02:38:03.236Z,99.90
2023-05-26T02:40:31.756Z,99.90
2023-05-26T02:43:00.251Z,99.90
2023-05-26T02:45:28.749Z,99.90
2023-05-26T02:47:57.266Z,99.90
2023-05-26T02:50:25.801Z,99.90
2023-05-26T02:52:55.726Z,99.90
2023-05-26T02:55:26.013Z,99.90
2023-05-26T02:57:56.171Z,99.90
2023-05-26T03:00:24.628Z,99.90
2023-05-26T03:02:53.131Z,99.90
2023-05-26T03:05:21.771Z,99.90
2023-05-26T03:07:50.263Z,99.90
2023-05-26T03:10:21.326Z,99.90
2023-05-26T03:12:49.987Z,99.90
2023-05-26T03:15:18.453Z,99.90
2023-05-26T03:17:47.048Z,99.90
2023-05-26T03:20:15.623Z,99.90
2023-05-26T03:22:52.707Z,99.90
2023-05-26T03:25:23.635Z,99.90
2023-05-26T03:27:52.160Z,99.90
2023-05-26T03:30:20.725Z,99.90
2023-05-26T03:32:49.215Z,99.90
2023-05-26T03:35:17.765Z,99.90
2023-05-26T03:37:46.257Z,99.90
2023-05-26T03:40:15.493Z,99.90
2023-05-26T03:42:45.363Z,99.90
2023-05-26T03:45:14.860Z,99.90
2023-05-26T03:47:43.652Z,99.90
2023-05-26T03:50:12.668Z,99.90
2023-05-26T03:52:41.813Z,99.90
2023-05-26T03:55:12.179Z,99.90
2023-05-26T03:57:40.821Z,99.90
2023-05-26T04:00:12.579Z,99.90
2023-05-26T04:02:41.203Z,99.90
2023-05-26T04:05:10.669Z,99.90
2023-05-26T04:07:39.190Z,99.90
2023-05-26T04:10:08.702Z,99.90
2023-05-26T04:12:37.250Z,99.90
2023-05-26T04:15:06.499Z,99.90
2023-05-26T04:17:36.460Z,99.90
2023-05-26T04:20:07.111Z,99.90
2023-05-26T04:22:35.697Z,99.90
2023-05-26T04:25:04.632Z,99.90
2023-05-26T04:27:33.104Z,99.90
2023-05-26T04:30:02.186Z,99.90
2023-05-26T04:32:30.840Z,99.90
2023-05-26T04:35:01.555Z,99.90
2023-05-26T04:37:33.726Z,99.90
2023-05-26T04:40:06.756Z,99.90
2023-05-26T04:42:36.018Z,99.90
2023-05-26T04:45:04.992Z,99.90
2023-05-26T04:47:36.302Z,99.90
2023-05-26T04:50:08.090Z,99.90
2023-05-26T04:52:36.752Z,99.90
2023-05-26T04:55:05.772Z,99.90
2023-05-26T04:57:34.312Z,99.90
2023-05-26T05:00:06.960Z,99.90
2023-05-26T05:02:35.644Z,99.90
2023-05-26T05:05:05.813Z,99.90
2023-05-26T05:07:34.758Z,99.90
2023-05-26T05:10:03.870Z,99.90
2023-05-26T05:12:32.631Z,99.90
2023-05-26T05:15:01.581Z,99.90
2023-05-26T05:17:30.133Z,99.90
2023-05-26T05:20:13.509Z,99.90
2023-05-26T05:22:44.826Z,99.90
2023-05-26T05:25:13.423Z,99.90
2023-05-26T05:27:41.959Z,99.40
2023-05-26T05:30:12.664Z,99.40
2023-05-26T05:32:41.503Z,97.30
2023-05-26T05:35:11.534Z,96.50
2023-05-26T05:37:40.367Z,95.90
2023-05-26T05:40:11.378Z,94.70
2023-05-26T05:42:39.837Z,93.90
2023-05-26T05:45:09.367Z,93.50
2023-05-26T05:47:38.122Z,92.90
2023-05-26T05:50:09.072Z,93.70
2023-05-26T05:52:37.949Z,92.10
2023-05-26T05:55:07.006Z,91.80
2023-05-26T05:57:37.002Z,90.90
2023-05-26T06:00:06.732Z,91.70
2023-05-26T06:02:35.403Z,91.70
2023-05-26T06:05:04.146Z,91.60
2023-05-26T06:07:32.655Z,90.80
2023-05-26T06:10:01.205Z,90.70
2023-05-26T06:12:29.751Z,90.80
2023-05-26T06:14:59.814Z,88.60
2023-05-26T06:17:28.340Z,90.30
2023-05-26T06:19:56.863Z,91.00
2023-05-26T06:22:25.365Z,91.30
2023-05-26T06:24:53.844Z,91.20
2023-05-26T06:27:22.364Z,91.00
2023-05-26T06:29:50.932Z,90.80
2023-05-26T06:32:21.226Z,91.90
2023-05-26T06:34:49.831Z,92.00
2023-05-26T06:37:18.280Z,92.20
2023-05-26T06:39:46.772Z,92.40
2023-05-26T06:42:15.323Z,91.10
2023-05-26T06:44:44.226Z,91.90
2023-05-26T06:47:13.058Z,90.80
2023-05-26T06:49:42.999Z,90.40
2023-05-26T06:52:11.473Z,87.90
2023-05-26T06:54:39.983Z,86.90
2023-05-26T06:57:08.415Z,87.70
2023-05-26T06:59:36.835Z,86.60
2023-05-26T07:02:05.753Z,85.70
2023-05-26T07:04:35.159Z,86.20
2023-05-26T07:07:05.777Z,85.70
2023-05-26T07:09:34.458Z,83.50
2023-05-26T07:12:03.325Z,81.10
2023-05-26T07:14:31.784Z,81.30
2023-05-26T07:17:00.270Z,81.30
2023-05-26T07:19:28.988Z,81.60
2023-05-26T07:21:57.664Z,80.30
2023-05-26T07:24:27.560Z,78.10
2023-05-26T07:26:56.396Z,76.60
2023-05-26T07:29:24.967Z,76.20
2023-05-26T07:31:53.549Z,75.20
2023-05-26T07:34:22.594Z,74.10
2023-05-26T07:36:51.299Z,73.60
2023-05-26T07:39:20.072Z,72.00
2023-05-26T07:41:51.772Z,71.00
2023-05-26T07:44:23.569Z,72.10
2023-05-26T07:46:52.404Z,71.40
2023-05-26T07:49:20.907Z,70.40
2023-05-26T07:51:49.360Z,69.90
2023-05-26T07:54:17.938Z,68.90
2023-05-26T07:56:46.450Z,68.20
2023-05-26T07:59:17.900Z,67.90
2023-05-26T08:01:46.934Z,67.70
2023-05-26T08:04:15.494Z,66.90
2023-05-26T08:06:44.033Z,66.70
2023-05-26T08:09:12.782Z,67.40
2023-05-26T08:11:41.518Z,66.90
2023-05-26T08:14:10.388Z,66.30
2023-05-26T08:16:40.551Z,68.20
2023-05-26T08:19:09.618Z,66.90
2023-05-26T08:21:38.387Z,65.70
2023-05-26T08:24:07.296Z,65.20
2023-05-26T08:26:35.924Z,65.10
2023-05-26T08:29:04.465Z,65.20
2023-05-26T08:31:33.039Z,65.10
2023-05-26T08:34:03.176Z,63.50
2023-05-26T08:36:31.597Z,63.80
2023-05-26T08:39:00.295Z,64.20
2023-05-26T08:41:36.768Z,64.50
2023-05-26T08:44:07.942Z,64.50
2023-05-26T08:46:38.892Z,64.50
2023-05-26T08:49:10.485Z,65.00
2023-05-26T08:51:46.184Z,64.90
2023-05-26T08:54:15.320Z,66.50
2023-05-26T08:56:45.221Z,66.00
2023-05-26T08:59:16.152Z,64.30
2023-05-26T09:01:44.786Z,64.80
2023-05-26T09:04:14.900Z,64.80
2023-05-26T09:06:59.027Z,64.50
2023-05-26T09:09:36.558Z,65.00
2023-05-26T09:12:10.812Z,65.10
2023-05-26T09:14:39.990Z,66.30
2023-05-26T09:17:08.788Z,66.10
2023-05-26T09:19:39.639Z,65.10
2023-05-26T09:22:09.341Z,65.00
2023-05-26T09:24:56.267Z,64.30
2023-05-26T09:27:25.366Z,65.80
2023-05-26T09:29:56.117Z,67.80
2023-05-26T09:32:28.000Z,67.30
2023-05-26T09:35:00.577Z,66.10
2023-05-26T09:37:30.545Z,67.20
2023-05-26T09:40:09.506Z,69.10
2023-05-26T09:42:39.764Z,67.30
2023-05-26T09:45:08.703Z,66.10
2023-05-26T09:47:37.552Z,68.00
2023-05-26T09:50:08.951Z,65.30
2023-05-26T09:52:38.432Z,65.40
2023-05-26T09:55:08.110Z,65.30
2023-05-26T09:57:39.490Z,64.30
2023-05-26T10:00:11.935Z,64.80
2023-05-26T10:02:42.331Z,63.50
2023-05-26T10:05:13.453Z,62.90
2023-05-26T10:07:44.393Z,62.60
2023-05-26T10:10:16.147Z,62.80
2023-05-26T10:12:45.720Z,63.30
2023-05-26T10:15:14.779Z,62.50
2023-05-26T10:17:43.632Z,63.20
2023-05-26T10:20:14.280Z,62.60
2023-05-26T10:22:49.060Z,62.30
2023-05-26T10:25:23.050Z,63.10
2023-05-26T10:28:01.914Z,64.10
2023-05-26T10:30:31.512Z,65.50
2023-05-26T10:33:10.788Z,62.80
2023-05-26T10:35:54.112Z,62.20
2023-05-26T10:38:28.502Z,62.60
2023-05-26T10:40:57.137Z,61.90
2023-05-26T10:43:27.187Z,65.30
2023-05-26T10:45:58.694Z,63.10
2023-05-26T10:48:28.195Z,62.30
2023-05-26T10:51:26.924Z,65.00
2023-05-26T10:53:57.672Z,63.90
2023-05-26T10:56:36.055Z,64.50
2023-05-26T10:59:05.728Z,65.40
2023-05-26T11:01:35.020Z,64.80
2023-05-26T11:04:11.320Z,64.90
2023-05-26T11:06:49.975Z,64.70
2023-05-26T11:09:22.214Z,65.90
2023-05-26T11:11:56.059Z,65.60
2023-05-26T11:14:27.007Z,64.60
2023-05-26T11:16:59.280Z,64.20
2023-05-26T11:19:33.334Z,64.50
2023-05-26T11:22:05.694Z,63.50
2023-05-26T11:24:34.633Z,65.60
2023-05-26T11:27:03.950Z,64.50
2023-05-26T11:29:32.656Z,65.00
2023-05-26T11:32:01.349Z,66.30
2023-05-26T11:34:29.960Z,66.00
2023-05-26T11:36:59.827Z,67.20
2023-05-26T11:39:36.194Z,67.20
2023-05-26T11:42:12.453Z,66.40
2023-05-26T11:44:41.350Z,67.10
2023-05-26T11:47:13.312Z,69.10
2023-05-26T11:49:48.015Z,68.60
2023-05-26T11:52:19.064Z,68.80
2023-05-26T11:54:48.978Z,70.90
2023-05-26T11:57:32.367Z,68.80
2023-05-26T12:00:01.102Z,70.30
2023-05-26T12:02:29.776Z,70.60
2023-05-26T12:04:58.443Z,68.30
2023-05-26T12:07:31.544Z,68.70
2023-05-26T12:10:10.948Z,71.10
2023-05-26T12:12:49.353Z,70.90
2023-05-26T12:15:21.502Z,71.20
2023-05-26T12:17:50.139Z,70.60
2023-05-26T12:20:37.872Z,69.20
2023-05-26T12:23:12.838Z,70.00
2023-05-26T12:25:46.012Z,71.20
2023-05-26T12:28:14.511Z,72.80
2023-05-26T12:33:14.791Z,70.20
2023-05-26T12:35:43.309Z,73.00
2023-05-26T12:38:15.017Z,77.10
2023-05-26T12:40:45.105Z,77.90
2023-05-26T12:43:13.481Z,74.40
2023-05-26T12:45:42.328Z,76.00
2023-05-26T12:48:10.918Z,73.70
2023-05-26T12:50:39.515Z,72.30
2023-05-26T12:53:07.970Z,73.70
2023-05-26T12:55:36.429Z,73.50
2023-05-26T12:58:06.675Z,72.30
2023-05-26T13:00:35.075Z,73.40
2023-05-26T13:03:03.794Z,73.30
2023-05-26T13:05:32.453Z,73.70
2023-05-26T13:08:00.941Z,73.80
2023-05-26T13:10:29.443Z,74.30
2023-05-26T13:12:58.731Z,74.20
2023-05-26T13:15:28.669Z,76.00
2023-05-26T13:17:58.281Z,78.90
2023-05-26T13:20:28.526Z,88.50
2023-05-26T13:22:57.099Z,79.30
2023-05-26T13:25:25.515Z,85.30
2023-05-26T13:27:54.043Z,77.40
2023-05-26T13:30:22.859Z,75.30
2023-05-26T13:32:52.948Z,74.90
2023-05-26T13:35:21.543Z,76.50
2023-05-26T13:37:50.342Z,76.10
2023-05-26T13:40:19.412Z,72.80
2023-05-26T13:42:48.984Z,74.10
2023-05-26T13:45:18.238Z,83.40
2023-05-26T13:47:47.237Z,78.30
2023-05-26T13:50:21.551Z,78.10
2023-05-26T13:52:51.008Z,78.40
2023-05-26T13:55:19.658Z,76.60
2023-05-26T13:57:48.188Z,76.30
2023-05-26T14:00:17.023Z,76.30
2023-05-26T14:02:45.810Z,75.70
2023-05-26T14:05:15.972Z,74.80
2023-05-26T14:07:45.895Z,73.00
2023-05-26T14:10:14.529Z,73.00
2023-05-26T14:12:43.430Z,72.70
2023-05-26T14:15:12.321Z,72.80
2023-05-26T14:17:41.009Z,74.50
2023-05-26T14:21:37.222Z,74.20
2023-05-26T14:23:00.198Z,73.80
2023-05-26T14:25:29.280Z,74.80
2023-05-26T14:27:57.846Z,74.30
2023-05-26T14:30:26.443Z,80.30
2023-05-26T14:32:55.161Z,75.30
2023-05-26T14:35:23.767Z,76.60
2023-05-26T14:37:52.282Z,77.90
2023-05-26T14:40:22.241Z,75.50
2023-05-26T14:42:50.675Z,79.00
2023-05-26T14:45:19.167Z,77.50
2023-05-26T14:47:47.823Z,78.70
2023-05-26T14:50:16.340Z,86.40
2023-05-26T14:52:44.736Z,76.20
2023-05-26T14:55:13.222Z,76.50
2023-05-26T14:57:43.504Z,74.70
2023-05-26T15:00:13.496Z,74.00
2023-05-26T15:02:42.372Z,75.00
2023-05-26T15:05:11.473Z,75.70
2023-05-26T15:07:39.983Z,75.90
2023-05-26T15:10:08.782Z,75.50
2023-05-26T15:12:38.303Z,75.60
2023-05-26T15:15:09.739Z,74.60
2023-05-26T15:17:38.391Z,73.60
2023-05-26T15:20:08.764Z,74.10
2023-05-26T15:22:37.596Z,74.00
2023-05-26T15:25:06.866Z,75.50
2023-05-26T15:27:35.348Z,76.00
2023-05-26T15:30:04.252Z,75.30
2023-05-26T15:32:34.209Z,74.70
2023-05-26T15:35:03.098Z,74.40
2023-05-26T15:37:39.315Z,74.90
2023-05-26T15:40:12.316Z,74.80
2023-05-26T15:42:40.733Z,76.00
2023-05-26T15:45:10.348Z,78.60
2023-05-26T15:47:40.233Z,87.20
2023-05-26T15:50:10.403Z,82.60
2023-05-26T15:52:38.837Z,81.10
2023-05-26T15:55:08.393Z,87.50
2023-05-26T15:57:36.898Z,85.10
2023-05-26T16:00:06.623Z,85.80
2023-05-26T16:02:35.238Z,86.70
2023-05-26T16:05:05.364Z,82.50
2023-05-26T16:07:33.896Z,81.20
2023-05-26T16:10:02.328Z,79.80
2023-05-26T16:12:30.799Z,79.50
2023-05-26T16:14:59.240Z,79.30
2023-05-26T16:17:27.736Z,79.70
2023-05-26T16:19:56.329Z,80.00
2023-05-26T16:22:26.368Z,80.20
2023-05-26T16:24:54.792Z,80.30
2023-05-26T16:27:23.305Z,79.20
2023-05-26T16:29:51.785Z,79.40
2023-05-26T16:32:20.299Z,79.30
2023-05-26T16:34:48.796Z,78.30
2023-05-26T16:37:17.276Z,86.60
2023-05-26T16:39:47.233Z,82.80
2023-05-26T16:42:15.752Z,81.40
2023-05-26T16:44:44.234Z,82.00
2023-05-26T16:47:12.881Z,84.00
2023-05-26T16:49:41.429Z,82.80
2023-05-26T16:52:09.865Z,82.90
2023-05-26T16:54:38.313Z,83.50
2023-05-26T16:57:08.952Z,84.10
2023-05-26T16:59:37.576Z,83.60
2023-05-26T17:02:06.474Z,84.80
2023-05-26T17:04:34.933Z,84.60
2023-05-26T17:07:03.431Z,84.90
2023-05-26T17:09:32.492Z,84.50
2023-05-26T17:12:02.956Z,85.00
2023-05-26T17:14:33.880Z,85.10
2023-05-26T17:17:03.155Z,86.00
2023-05-26T17:19:31.968Z,85.10
2023-05-26T17:22:01.392Z,85.30
2023-05-26T17:24:30.001Z,85.00
2023-05-26T17:26:58.526Z,85.00
2023-05-26T17:29:27.420Z,85.30
2023-05-26T17:31:57.456Z,86.10
2023-05-26T17:34:26.580Z,86.90
2023-05-26T17:36:55.184Z,86.60
2023-05-26T17:39:24.222Z,87.60
2023-05-26T17:41:52.962Z,88.20
2023-05-26T17:44:21.686Z,89.50
2023-05-26T17:46:50.221Z,90.20
2023-05-26T17:49:20.333Z,90.80
2023-05-26T17:51:48.849Z,90.80
2023-05-26T17:54:17.347Z,90.90
2023-05-26T17:56:45.852Z,90.50
2023-05-26T17:59:14.329Z,91.30
2023-05-26T18:01:42.848Z,91.70
2023-05-26T18:04:11.479Z,91.60
2023-05-26T18:06:41.644Z,91.70
2023-05-26T18:09:10.553Z,92.30
2023-05-26T18:11:39.045Z,92.60
2023-05-26T18:14:07.557Z,92.60
2023-05-26T18:16:36.338Z,93.00
2023-05-26T18:19:05.053Z,92.90
2023-05-26T18:21:33.652Z,92.90
2023-05-26T18:24:03.519Z,93.70
2023-05-26T18:26:32.413Z,93.40
2023-05-26T18:29:01.690Z,94.00
2023-05-26T18:31:30.859Z,94.30
2023-05-26T18:34:06.595Z,94.90
2023-05-26T18:36:41.334Z,94.90
2023-05-26T18:39:11.584Z,95.10
2023-05-26T18:41:40.132Z,96.00
2023-05-26T18:44:08.697Z,95.90
2023-05-26T18:46:37.257Z,95.70
2023-05-26T18:49:05.971Z,96.20
2023-05-26T18:51:34.670Z,96.40
2023-05-26T18:54:03.198Z,96.20
2023-05-26T18:56:33.557Z,97.10
2023-05-26T18:59:02.205Z,97.40
2023-05-26T19:01:30.927Z,97.60
2023-05-26T19:04:01.469Z,98.20
2023-05-26T19:06:30.434Z,98.40
2023-05-26T19:08:58.922Z,98.80
2023-05-26T19:11:28.522Z,99.40
2023-05-26T19:13:58.441Z,99.00
2023-05-26T19:16:27.060Z,99.90
2023-05-26T19:18:55.710Z,99.90
2023-05-26T19:21:24.263Z,99.90
2023-05-26T19:23:52.748Z,99.90
2023-05-26T19:26:21.240Z,99.90
2023-05-26T19:28:54.810Z,99.90
2023-05-26T19:31:34.851Z,99.90
2023-05-26T19:34:03.414Z,99.90
2023-05-26T19:36:32.256Z,99.90
2023-05-26T19:39:00.994Z,99.90
2023-05-26T19:41:30.174Z,99.90
2023-05-26T19:43:58.919Z,99.90
2023-05-26T19:46:27.561Z,99.90
2023-05-26T19:48:57.822Z,99.90
2023-05-26T19:51:26.422Z,99.90
2023-05-26T19:53:54.949Z,99.90
2023-05-26T19:56:23.489Z,99.90
2023-05-26T19:58:52.033Z,99.90
2023-05-26T20:01:21.452Z,99.90
2023-05-26T20:03:51.319Z,99.90
2023-05-26T20:06:21.304Z,99.90
2023-05-26T20:08:49.790Z,99.90
2023-05-26T20:11:20.265Z,99.90
2023-05-26T20:13:49.171Z,99.90
2023-05-26T20:16:17.797Z,99.90
2023-05-26T20:18:46.926Z,99.90
2023-05-26T20:21:15.417Z,99.90
2023-05-26T20:23:45.327Z,99.90
2023-05-26T20:26:13.899Z,99.90
2023-05-26T20:28:42.382Z,99.90
2023-05-26T20:31:10.939Z,99.90
2023-05-26T20:33:39.515Z,99.90
2023-05-26T20:36:08.617Z,99.90
2023-05-26T20:38:38.159Z,99.90
2023-05-26T20:41:09.128Z,99.90
2023-05-26T20:43:37.636Z,99.90
2023-05-26T20:46:06.586Z,99.90
2023-05-26T20:48:35.410Z,99.90
2023-05-26T20:51:04.096Z,99.90
2023-05-26T20:53:32.699Z,99.90
2023-05-26T20:56:01.292Z,99.90
2023-05-26T20:58:31.467Z,99.90
2023-05-26T21:00:59.964Z,99.90
2023-05-26T21:03:28.691Z,99.90
2023-05-26T21:05:57.274Z,99.90
2023-05-26T21:08:26.482Z,99.90
2023-05-26T21:10:54.974Z,99.90
2023-05-26T21:13:23.528Z,99.90
2023-05-26T21:15:53.616Z,99.90
2023-05-26T21:18:22.148Z,99.90
2023-05-26T21:20:51.375Z,99.90
2023-05-26T21:23:19.908Z,99.90
2023-05-26T21:25:48.772Z,99.90
2023-05-26T21:28:17.460Z,99.90
2023-05-26T21:30:46.103Z,99.90
2023-05-26T21:33:16.091Z,99.90
2023-05-26T21:35:44.785Z,99.90
2023-05-26T21:38:13.301Z,99.90
2023-05-26T21:40:41.858Z,99.90
2023-05-26T21:43:10.351Z,99.90
2023-05-26T21:45:38.854Z,99.90
2023-05-26T21:48:07.383Z,99.90
2023-05-26T21:50:37.390Z,99.90
2023-05-26T21:53:05.879Z,99.90
2023-05-26T21:55:34.506Z,99.90
2023-05-26T21:58:03.073Z,99.90
2023-05-26T22:00:31.692Z,99.90
2023-05-26T22:03:00.225Z,99.90
2023-05-26T22:05:28.935Z,99.90
2023-05-26T22:07:58.849Z,99.90
2023-05-26T22:10:28.200Z,99.90
2023-05-26T22:12:56.748Z,99.90
2023-05-26T22:15:25.498Z,99.90
2023-05-26T22:17:54.292Z,99.90
2023-05-26T22:20:22.846Z,99.90
2023-05-26T22:22:51.379Z,99.90
2023-05-26T22:25:21.755Z,99.90
2023-05-26T22:27:50.211Z,99.90
2023-05-26T22:30:18.754Z,99.90
2023-05-26T22:32:47.416Z,99.90
2023-05-26T22:35:16.356Z,99.90
2023-05-26T22:37:44.913Z,99.90
2023-05-26T22:40:13.720Z,99.90
2023-05-26T22:42:43.555Z,99.90
2023-05-26T22:45:12.703Z,99.90
2023-05-26T22:47:41.494Z,99.90
2023-05-26T22:50:10.746Z,99.90
2023-05-26T22:52:40.553Z,99.90
2023-05-26T22:55:09.897Z,99.90
2023-05-26T22:57:38.345Z,99.90
2023-05-26T23:00:09.649Z,99.90
2023-05-26T23:02:38.313Z,99.90
2023-05-26T23:05:08.059Z,99.90
2023-05-26T23:07:36.583Z,99.90
2023-05-26T23:10:07.482Z,99.90
2023-05-26T23:12:35.982Z,99.90
2023-05-26T23:15:05.243Z,99.90
2023-05-26T23:17:35.288Z,99.90
2023-05-26T23:20:03.934Z,99.30
2023-05-26T23:22:32.492Z,98.80
2023-05-26T23:25:00.939Z,98.50
2023-05-26T23:27:29.418Z,98.00
2023-05-26T23:29:57.855Z,97.70
2023-05-26T23:32:26.711Z,97.30
2023-05-26T23:34:56.593Z,97.00
2023-05-26T23:37:25.118Z,97.20
2023-05-26T23:39:53.537Z,96.80
2023-05-26T23:42:22.087Z,96.90
2023-05-26T23:44:51.616Z,97.00
2023-05-26T23:47:20.159Z,97.00
2023-05-26T23:49:50.979Z,97.10
2023-05-26T23:52:20.858Z,97.40
2023-05-26T23:54:49.309Z,97.20
2023-05-26T23:57:17.832Z,97.20
2023-05-26T23:59:46.361Z,97.20
